sensor_id;sensor_type;location;lat;lon;timestamp;temperature;humidity
8340;DHT22;4207;49.314;7.162;2023-02-01T00:00:17;4.90;99.90
8340;DHT22;4207;49.314;7.162;2023-02-01T00:02:46;5.00;99.90
8340;DHT22;4207;49.314;7.162;2023-02-01T00:05:16;4.90;99.90
8340;DHT22;4207;49.314;7.162;2023-02-01T00:07:46;5.00;99.90
8340;DHT22;4207;49.314;7.162;2023-02-01T00:10:15;4.90;99.90
8340;DHT22;4207;49.314;7.162;2023-02-01T00:12:44;5.00;99.90
8340;DHT22;4207;49.314;7.162;2023-02-01T00:15:12;5.00;99.90
8340;DHT22;4207;49.314;7.162;2023-02-01T00:17:40;5.00;99.90
8340;DHT22;4207;49.314;7.162;2023-02-01T00:20:09;5.00;99.90
8340;DHT22;4207;49.314;7.162;2023-02-01T00:22:39;5.00;99.90
8340;DHT22;4207;49.314;7.162;2023-02-01T00:25:07;5.00;99.90
8340;DHT22;4207;49.314;7.162;2023-02-01T00:27:35;5.00;99.90
8340;DHT22;4207;49.314;7.162;2023-02-01T00:30:04;5.00;99.90
8340;DHT22;4207;49.314;7.162;2023-02-01T00:32:32;5.00;99.90
8340;DHT22;4207;49.314;7.162;2023-02-01T00:35:00;5.00;99.90
8340;DHT22;4207;49.314;7.162;2023-02-01T00:37:28;5.00;99.90
8340;DHT22;4207;49.314;7.162;2023-02-01T00:39:58;5.00;99.90
8340;DHT22;4207;49.314;7.162;2023-02-01T00:42:26;5.00;99.90
8340;DHT22;4207;49.314;7.162;2023-02-01T00:44:54;5.00;99.90
8340;DHT22;4207;49.314;7.162;2023-02-01T00:47:22;5.00;99.90
8340;DHT22;4207;49.314;7.162;2023-02-01T00:49:50;5.00;99.90
8340;DHT22;4207;49.314;7.162;2023-02-01T00:52:18;5.00;99.90
8340;DHT22;4207;49.314;7.162;2023-02-01T00:54:47;5.00;99.90
8340;DHT22;4207;49.314;7.162;2023-02-01T00:57:16;5.00;99.90
8340;DHT22;4207;49.314;7.162;2023-02-01T00:59:44;5.00;99.90
8340;DHT22;4207;49.314;7.162;2023-02-01T01:02:12;5.10;99.90
8340;DHT22;4207;49.314;7.162;2023-02-01T01:04:41;5.10;99.90
8340;DHT22;4207;49.314;7.162;2023-02-01T01:07:09;5.00;99.90
8340;DHT22;4207;49.314;7.162;2023-02-01T01:09:37;5.00;99.90
8340;DHT22;4207;49.314;7.162;2023-02-01T01:12:05;5.00;99.90
8340;DHT22;4207;49.314;7.162;2023-02-01T01:14:34;5.00;99.90
8340;DHT22;4207;49.314;7.162;2023-02-01T01:17:03;5.00;99.90
8340;DHT22;4207;49.314;7.162;2023-02-01T01:19:31;5.00;99.90
8340;DHT22;4207;49.314;7.162;2023-02-01T01:21:59;5.00;99.90
8340;DHT22;4207;49.314;7.162;2023-02-01T01:24:27;5.00;99.90
8340;DHT22;4207;49.314;7.162;2023-02-01T01:26:55;5.00;99.90
8340;DHT22;4207;49.314;7.162;2023-02-01T01:29:23;5.00;99.90
8340;DHT22;4207;49.314;7.162;2023-02-01T01:31:53;5.00;99.90
8340;DHT22;4207;49.314;7.162;2023-02-01T01:34:21;5.00;99.90
8340;DHT22;4207;49.314;7.162;2023-02-01T01:36:49;5.00;99.90
8340;DHT22;4207;49.314;7.162;2023-02-01T01:39:17;5.00;99.90
8340;DHT22;4207;49.314;7.162;2023-02-01T01:41:45;5.00;99.90
8340;DHT22;4207;49.314;7.162;2023-02-01T01:44:56;5.00;99.90
8340;DHT22;4207;49.314;7.162;2023-02-01T01:47:31;5.00;99.90
8340;DHT22;4207;49.314;7.162;2023-02-01T01:50:02;5.00;99.90
8340;DHT22;4207;49.314;7.162;2023-02-01T01:52:30;5.00;99.90
8340;DHT22;4207;49.314;7.162;2023-02-01T01:54:59;5.00;99.90
8340;DHT22;4207;49.314;7.162;2023-02-01T01:57:32;5.00;99.90
8340;DHT22;4207;49.314;7.162;2023-02-01T02:00:07;5.00;99.90
8340;DHT22;4207;49.314;7.162;2023-02-01T02:02:48;5.10;99.90
8340;DHT22;4207;49.314;7.162;2023-02-01T02:05:19;5.00;99.90
8340;DHT22;4207;49.314;7.162;2023-02-01T02:07:49;5.10;99.90
8340;DHT22;4207;49.314;7.162;2023-02-01T02:10:18;5.00;99.90
8340;DHT22;4207;49.314;7.162;2023-02-01T02:12:48;5.00;99.90
8340;DHT22;4207;49.314;7.162;2023-02-01T02:15:17;5.00;99.90
8340;DHT22;4207;49.314;7.162;2023-02-01T02:17:52;5.00;99.90
8340;DHT22;4207;49.314;7.162;2023-02-01T02:23:53;5.00;99.90
8340;DHT22;4207;49.314;7.162;2023-02-01T02:26:49;5.00;99.90
8340;DHT22;4207;49.314;7.162;2023-02-01T02:33:23;5.00;99.90
8340;DHT22;4207;49.314;7.162;2023-02-01T02:36:05;4.90;99.90
8340;DHT22;4207;49.314;7.162;2023-02-01T02:38:41;5.00;99.90
8340;DHT22;4207;49.314;7.162;2023-02-01T02:41:15;5.00;99.90
8340;DHT22;4207;49.314;7.162;2023-02-01T02:44:11;5.00;99.90
8340;DHT22;4207;49.314;7.162;2023-02-01T02:47:02;5.00;99.90
8340;DHT22;4207;49.314;7.162;2023-02-01T02:49:56;5.00;99.90
8340;DHT22;4207;49.314;7.162;2023-02-01T02:52:46;4.90;99.90
8340;DHT22;4207;49.314;7.162;2023-02-01T02:55:35;4.90;99.90
8340;DHT22;4207;49.314;7.162;2023-02-01T02:58:05;4.90;99.90
8340;DHT22;4207;49.314;7.162;2023-02-01T03:00:53;4.90;99.90
8340;DHT22;4207;49.314;7.162;2023-02-01T03:03:41;4.90;99.90
8340;DHT22;4207;49.314;7.162;2023-02-01T03:06:30;4.90;99.90
8340;DHT22;4207;49.314;7.162;2023-02-01T03:09:03;5.00;99.90
8340;DHT22;4207;49.314;7.162;2023-02-01T03:11:32;5.00;99.90
8340;DHT22;4207;49.314;7.162;2023-02-01T03:14:16;5.00;99.90
8340;DHT22;4207;49.314;7.162;2023-02-01T03:16:48;5.00;99.90
8340;DHT22;4207;49.314;7.162;2023-02-01T03:19:22;5.00;99.90
8340;DHT22;4207;49.314;7.162;2023-02-01T03:21:55;5.00;99.90
8340;DHT22;4207;49.314;7.162;2023-02-01T03:24:26;5.00;99.90
8340;DHT22;4207;49.314;7.162;2023-02-01T03:27:05;5.10;99.90
8340;DHT22;4207;49.314;7.162;2023-02-01T03:29:39;5.10;99.90
8340;DHT22;4207;49.314;7.162;2023-02-01T03:32:09;5.10;99.90
8340;DHT22;4207;49.314;7.162;2023-02-01T03:34:38;5.10;99.90
8340;DHT22;4207;49.314;7.162;2023-02-01T03:37:10;5.00;99.90
8340;DHT22;4207;49.314;7.162;2023-02-01T03:39:43;5.00;99.90
8340;DHT22;4207;49.314;7.162;2023-02-01T03:42:17;5.00;99.90
8340;DHT22;4207;49.314;7.162;2023-02-01T03:44:49;5.10;99.90
8340;DHT22;4207;49.314;7.162;2023-02-01T03:47:22;5.00;99.90
8340;DHT22;4207;49.314;7.162;2023-02-01T03:49:54;5.00;99.90
8340;DHT22;4207;49.314;7.162;2023-02-01T03:52:30;5.00;99.90
8340;DHT22;4207;49.314;7.162;2023-02-01T03:55:02;5.00;99.90
8340;DHT22;4207;49.314;7.162;2023-02-01T03:57:33;5.00;99.90
8340;DHT22;4207;49.314;7.162;2023-02-01T04:00:07;5.00;99.90
8340;DHT22;4207;49.314;7.162;2023-02-01T04:02:39;5.00;99.90
8340;DHT22;4207;49.314;7.162;2023-02-01T04:05:08;5.00;99.90
8340;DHT22;4207;49.314;7.162;2023-02-01T04:07:47;5.10;99.90
8340;DHT22;4207;49.314;7.162;2023-02-01T04:10:15;5.10;99.90
8340;DHT22;4207;49.314;7.162;2023-02-01T04:12:45;5.10;99.90
8340;DHT22;4207;49.314;7.162;2023-02-01T04:15:14;5.10;99.90
8340;DHT22;4207;49.314;7.162;2023-02-01T04:17:42;5.10;99.90
8340;DHT22;4207;49.314;7.162;2023-02-01T04:20:10;5.10;99.90
8340;DHT22;4207;49.314;7.162;2023-02-01T04:22:38;5.10;99.90
8340;DHT22;4207;49.314;7.162;2023-02-01T04:25:08;5.20;99.90
8340;DHT22;4207;49.314;7.162;2023-02-01T04:27:37;5.20;99.90
8340;DHT22;4207;49.314;7.162;2023-02-01T04:30:05;5.20;99.90
8340;DHT22;4207;49.314;7.162;2023-02-01T04:32:36;5.20;99.90
8340;DHT22;4207;49.314;7.162;2023-02-01T04:35:05;5.20;99.90
8340;DHT22;4207;49.314;7.162;2023-02-01T04:37:33;5.20;99.90
8340;DHT22;4207;49.314;7.162;2023-02-01T04:40:01;5.20;99.90
8340;DHT22;4207;49.314;7.162;2023-02-01T04:42:31;5.20;99.90
8340;DHT22;4207;49.314;7.162;2023-02-01T04:44:59;5.20;99.90
8340;DHT22;4207;49.314;7.162;2023-02-01T04:47:27;5.20;99.90
8340;DHT22;4207;49.314;7.162;2023-02-01T04:49:55;5.20;99.90
8340;DHT22;4207;49.314;7.162;2023-02-01T04:52:23;5.20;99.90
8340;DHT22;4207;49.314;7.162;2023-02-01T04:54:51;5.20;99.90
8340;DHT22;4207;49.314;7.162;2023-02-01T04:57:22;5.20;99.90
8340;DHT22;4207;49.314;7.162;2023-02-01T04:59:52;5.20;99.90
8340;DHT22;4207;49.314;7.162;2023-02-01T05:02:20;5.10;99.90
8340;DHT22;4207;49.314;7.162;2023-02-01T05:04:48;5.20;99.90
8340;DHT22;4207;49.314;7.162;2023-02-01T05:07:17;5.20;99.90
8340;DHT22;4207;49.314;7.162;2023-02-01T05:09:45;5.20;99.90
8340;DHT22;4207;49.314;7.162;2023-02-01T05:12:13;5.20;99.90
8340;DHT22;4207;49.314;7.162;2023-02-01T05:15:00;5.20;99.90
8340;DHT22;4207;49.314;7.162;2023-02-01T05:17:28;5.20;99.90
8340;DHT22;4207;49.314;7.162;2023-02-01T05:19:56;5.20;99.90
8340;DHT22;4207;49.314;7.162;2023-02-01T05:22:24;5.20;99.90
8340;DHT22;4207;49.314;7.162;2023-02-01T05:24:52;5.20;99.90
8340;DHT22;4207;49.314;7.162;2023-02-01T05:27:20;5.20;99.90
8340;DHT22;4207;49.314;7.162;2023-02-01T05:29:48;5.20;99.90
8340;DHT22;4207;49.314;7.162;2023-02-01T05:32:17;5.20;99.90
8340;DHT22;4207;49.314;7.162;2023-02-01T05:34:48;5.20;99.90
8340;DHT22;4207;49.314;7.162;2023-02-01T05:37:17;5.30;99.90
8340;DHT22;4207;49.314;7.162;2023-02-01T05:39:45;5.30;99.90
8340;DHT22;4207;49.314;7.162;2023-02-01T05:42:13;5.40;99.90
8340;DHT22;4207;49.314;7.162;2023-02-01T05:44:41;5.50;99.90
8340;DHT22;4207;49.314;7.162;2023-02-01T05:47:09;5.50;99.90
8340;DHT22;4207;49.314;7.162;2023-02-01T05:49:39;5.70;99.90
8340;DHT22;4207;49.314;7.162;2023-02-01T05:52:07;5.60;99.90
8340;DHT22;4207;49.314;7.162;2023-02-01T05:54:35;5.60;99.90
8340;DHT22;4207;49.314;7.162;2023-02-01T05:57:03;5.50;99.90
8340;DHT22;4207;49.314;7.162;2023-02-01T05:59:31;5.60;99.90
8340;DHT22;4207;49.314;7.162;2023-02-01T06:01:59;5.60;99.90
8340;DHT22;4207;49.314;7.162;2023-02-01T06:04:27;5.50;99.90
8340;DHT22;4207;49.314;7.162;2023-02-01T06:06:56;5.50;99.90
8340;DHT22;4207;49.314;7.162;2023-02-01T06:09:24;5.50;99.90
8340;DHT22;4207;49.314;7.162;2023-02-01T06:11:52;5.40;99.90
8340;DHT22;4207;49.314;7.162;2023-02-01T06:14:20;5.40;99.90
8340;DHT22;4207;49.314;7.162;2023-02-01T06:16:48;5.40;99.90
8340;DHT22;4207;49.314;7.162;2023-02-01T06:19:16;5.40;99.90
8340;DHT22;4207;49.314;7.162;2023-02-01T06:21:44;5.40;99.90
8340;DHT22;4207;49.314;7.162;2023-02-01T06:24:14;5.40;99.90
8340;DHT22;4207;49.314;7.162;2023-02-01T06:26:43;5.40;99.90
8340;DHT22;4207;49.314;7.162;2023-02-01T06:29:11;5.40;99.90
8340;DHT22;4207;49.314;7.162;2023-02-01T06:31:40;5.50;99.90
8340;DHT22;4207;49.314;7.162;2023-02-01T06:34:09;5.50;99.90
8340;DHT22;4207;49.314;7.162;2023-02-01T06:36:37;5.50;99.90
8340;DHT22;4207;49.314;7.162;2023-02-01T06:39:05;5.50;99.90
8340;DHT22;4207;49.314;7.162;2023-02-01T06:41:34;5.50;99.90
8340;DHT22;4207;49.314;7.162;2023-02-01T06:44:02;5.50;99.90
8340;DHT22;4207;49.314;7.162;2023-02-01T06:46:30;5.50;99.90
8340;DHT22;4207;49.314;7.162;2023-02-01T06:48:58;5.50;99.90
8340;DHT22;4207;49.314;7.162;2023-02-01T06:51:27;5.50;99.90
8340;DHT22;4207;49.314;7.162;2023-02-01T06:53:56;5.50;99.90
8340;DHT22;4207;49.314;7.162;2023-02-01T06:56:25;5.60;99.90
8340;DHT22;4207;49.314;7.162;2023-02-01T06:58:54;5.50;99.90
8340;DHT22;4207;49.314;7.162;2023-02-01T07:01:22;5.40;99.90
8340;DHT22;4207;49.314;7.162;2023-02-01T07:03:50;5.40;99.90
8340;DHT22;4207;49.314;7.162;2023-02-01T07:06:19;5.50;99.90
8340;DHT22;4207;49.314;7.162;2023-02-01T07:08:47;5.40;99.90
8340;DHT22;4207;49.314;7.162;2023-02-01T07:11:16;5.40;99.90
8340;DHT22;4207;49.314;7.162;2023-02-01T07:13:45;5.50;99.90
8340;DHT22;4207;49.314;7.162;2023-02-01T07:16:16;5.50;99.90
8340;DHT22;4207;49.314;7.162;2023-02-01T07:18:44;5.50;99.90
8340;DHT22;4207;49.314;7.162;2023-02-01T07:21:12;5.50;99.90
8340;DHT22;4207;49.314;7.162;2023-02-01T07:23:42;5.50;99.90
8340;DHT22;4207;49.314;7.162;2023-02-01T07:26:12;5.50;99.90
8340;DHT22;4207;49.314;7.162;2023-02-01T07:28:41;5.50;99.90
8340;DHT22;4207;49.314;7.162;2023-02-01T07:31:11;5.50;99.90
8340;DHT22;4207;49.314;7.162;2023-02-01T07:33:41;5.50;99.90
8340;DHT22;4207;49.314;7.162;2023-02-01T07:36:11;5.50;99.90
8340;DHT22;4207;49.314;7.162;2023-02-01T07:38:40;5.50;99.90
8340;DHT22;4207;49.314;7.162;2023-02-01T07:41:09;5.50;99.90
8340;DHT22;4207;49.314;7.162;2023-02-01T07:43:37;5.50;99.90
8340;DHT22;4207;49.314;7.162;2023-02-01T07:46:05;5.50;99.90
8340;DHT22;4207;49.314;7.162;2023-02-01T07:48:34;5.50;99.90
8340;DHT22;4207;49.314;7.162;2023-02-01T07:51:05;5.50;99.90
8340;DHT22;4207;49.314;7.162;2023-02-01T07:53:34;5.50;99.90
8340;DHT22;4207;49.314;7.162;2023-02-01T07:56:08;5.50;99.90
8340;DHT22;4207;49.314;7.162;2023-02-01T07:58:37;5.40;99.90
8340;DHT22;4207;49.314;7.162;2023-02-01T08:01:05;5.40;99.90
8340;DHT22;4207;49.314;7.162;2023-02-01T08:03:51;5.40;99.90
8340;DHT22;4207;49.314;7.162;2023-02-01T08:06:22;5.30;99.90
8340;DHT22;4207;49.314;7.162;2023-02-01T08:08:52;5.30;99.90
8340;DHT22;4207;49.314;7.162;2023-02-01T08:11:22;5.30;99.90
8340;DHT22;4207;49.314;7.162;2023-02-01T08:13:50;5.40;99.90
8340;DHT22;4207;49.314;7.162;2023-02-01T08:16:19;5.50;99.90
8340;DHT22;4207;49.314;7.162;2023-02-01T08:18:48;5.60;99.90
8340;DHT22;4207;49.314;7.162;2023-02-01T08:21:19;5.60;99.90
8340;DHT22;4207;49.314;7.162;2023-02-01T08:23:50;5.70;99.90
8340;DHT22;4207;49.314;7.162;2023-02-01T08:26:19;5.70;99.90
8340;DHT22;4207;49.314;7.162;2023-02-01T08:28:50;5.70;99.90
8340;DHT22;4207;49.314;7.162;2023-02-01T08:31:20;5.70;99.90
8340;DHT22;4207;49.314;7.162;2023-02-01T08:33:51;5.80;99.90
8340;DHT22;4207;49.314;7.162;2023-02-01T08:36:20;5.80;99.90
8340;DHT22;4207;49.314;7.162;2023-02-01T08:38:50;5.80;99.90
8340;DHT22;4207;49.314;7.162;2023-02-01T08:41:19;5.80;99.90
8340;DHT22;4207;49.314;7.162;2023-02-01T08:43:48;5.90;99.90
8340;DHT22;4207;49.314;7.162;2023-02-01T08:46:16;5.80;99.90
8340;DHT22;4207;49.314;7.162;2023-02-01T08:48:45;5.90;99.90
8340;DHT22;4207;49.314;7.162;2023-02-01T08:51:16;5.90;99.90
8340;DHT22;4207;49.314;7.162;2023-02-01T08:53:45;5.90;99.90
8340;DHT22;4207;49.314;7.162;2023-02-01T08:56:16;5.90;99.90
8340;DHT22;4207;49.314;7.162;2023-02-01T08:58:44;5.90;99.90
8340;DHT22;4207;49.314;7.162;2023-02-01T09:01:14;5.90;99.90
8340;DHT22;4207;49.314;7.162;2023-02-01T09:03:42;6.00;99.90
8340;DHT22;4207;49.314;7.162;2023-02-01T09:06:12;6.00;99.90
8340;DHT22;4207;49.314;7.162;2023-02-01T09:08:41;6.10;99.90
8340;DHT22;4207;49.314;7.162;2023-02-01T09:11:14;6.10;99.90
8340;DHT22;4207;49.314;7.162;2023-02-01T09:13:43;6.10;99.90
8340;DHT22;4207;49.314;7.162;2023-02-01T09:16:11;6.20;99.90
8340;DHT22;4207;49.314;7.162;2023-02-01T09:18:40;6.30;99.90
8340;DHT22;4207;49.314;7.162;2023-02-01T09:21:22;6.30;99.90
8340;DHT22;4207;49.314;7.162;2023-02-01T09:23:52;6.50;99.90
8340;DHT22;4207;49.314;7.162;2023-02-01T09:26:21;6.60;99.90
8340;DHT22;4207;49.314;7.162;2023-02-01T09:28:57;6.60;99.90
8340;DHT22;4207;49.314;7.162;2023-02-01T09:31:25;6.70;99.90
8340;DHT22;4207;49.314;7.162;2023-02-01T09:33:54;6.60;99.90
8340;DHT22;4207;49.314;7.162;2023-02-01T09:36:22;6.70;99.90
8340;DHT22;4207;49.314;7.162;2023-02-01T09:38:50;6.70;99.90
8340;DHT22;4207;49.314;7.162;2023-02-01T09:41:29;6.70;99.90
8340;DHT22;4207;49.314;7.162;2023-02-01T09:44:05;6.80;99.90
8340;DHT22;4207;49.314;7.162;2023-02-01T09:46:36;6.70;99.90
8340;DHT22;4207;49.314;7.162;2023-02-01T09:49:08;6.60;99.90
8340;DHT22;4207;49.314;7.162;2023-02-01T09:51:39;6.50;99.90
8340;DHT22;4207;49.314;7.162;2023-02-01T09:54:13;6.40;99.90
8340;DHT22;4207;49.314;7.162;2023-02-01T09:56:46;6.40;99.90
8340;DHT22;4207;49.314;7.162;2023-02-01T09:59:26;6.40;99.90
8340;DHT22;4207;49.314;7.162;2023-02-01T10:01:57;6.40;99.90
8340;DHT22;4207;49.314;7.162;2023-02-01T10:04:26;6.40;99.90
8340;DHT22;4207;49.314;7.162;2023-02-01T10:07:01;6.50;99.90
8340;DHT22;4207;49.314;7.162;2023-02-01T10:09:52;6.50;99.90
8340;DHT22;4207;49.314;7.162;2023-02-01T10:12:58;6.50;99.90
8340;DHT22;4207;49.314;7.162;2023-02-01T10:15:40;6.50;99.90
8340;DHT22;4207;49.314;7.162;2023-02-01T10:18:28;6.50;99.90
8340;DHT22;4207;49.314;7.162;2023-02-01T10:21:04;6.50;99.90
8340;DHT22;4207;49.314;7.162;2023-02-01T10:23:49;6.40;99.90
8340;DHT22;4207;49.314;7.162;2023-02-01T10:26:24;6.30;99.90
8340;DHT22;4207;49.314;7.162;2023-02-01T10:28:56;6.30;99.90
8340;DHT22;4207;49.314;7.162;2023-02-01T10:31:27;6.30;99.90
8340;DHT22;4207;49.314;7.162;2023-02-01T10:33:58;6.30;99.90
8340;DHT22;4207;49.314;7.162;2023-02-01T10:36:29;6.30;99.90
8340;DHT22;4207;49.314;7.162;2023-02-01T10:38:58;6.20;99.90
8340;DHT22;4207;49.314;7.162;2023-02-01T10:41:31;6.20;99.90
8340;DHT22;4207;49.314;7.162;2023-02-01T10:44:03;6.20;99.90
8340;DHT22;4207;49.314;7.162;2023-02-01T10:46:33;6.20;99.90
8340;DHT22;4207;49.314;7.162;2023-02-01T10:49:03;6.50;99.90
8340;DHT22;4207;49.314;7.162;2023-02-01T10:51:42;6.30;99.90
8340;DHT22;4207;49.314;7.162;2023-02-01T10:54:14;6.30;99.90
8340;DHT22;4207;49.314;7.162;2023-02-01T10:56:44;6.30;99.90
8340;DHT22;4207;49.314;7.162;2023-02-01T10:59:18;6.30;99.90
8340;DHT22;4207;49.314;7.162;2023-02-01T11:01:47;6.30;99.90
8340;DHT22;4207;49.314;7.162;2023-02-01T11:04:16;6.30;99.90
8340;DHT22;4207;49.314;7.162;2023-02-01T11:06:48;6.40;99.90
8340;DHT22;4207;49.314;7.162;2023-02-01T11:09:20;6.30;99.90
8340;DHT22;4207;49.314;7.162;2023-02-01T11:11:59;6.40;99.90
8340;DHT22;4207;49.314;7.162;2023-02-01T11:14:35;6.30;99.90
8340;DHT22;4207;49.314;7.162;2023-02-01T11:17:24;6.40;99.90
8340;DHT22;4207;49.314;7.162;2023-02-01T11:19:59;6.30;99.90
8340;DHT22;4207;49.314;7.162;2023-02-01T11:22:28;6.40;99.90
8340;DHT22;4207;49.314;7.162;2023-02-01T11:24:57;6.40;99.90
8340;DHT22;4207;49.314;7.162;2023-02-01T11:27:27;6.30;99.90
8340;DHT22;4207;49.314;7.162;2023-02-01T11:29:59;6.30;99.90
8340;DHT22;4207;49.314;7.162;2023-02-01T11:32:28;6.30;99.90
8340;DHT22;4207;49.314;7.162;2023-02-01T11:35:01;6.40;99.90
8340;DHT22;4207;49.314;7.162;2023-02-01T11:37:32;6.50;99.90
8340;DHT22;4207;49.314;7.162;2023-02-01T11:40:04;6.60;99.90
8340;DHT22;4207;49.314;7.162;2023-02-01T11:42:55;6.70;99.90
8340;DHT22;4207;49.314;7.162;2023-02-01T11:45:27;6.70;99.90
8340;DHT22;4207;49.314;7.162;2023-02-01T11:47:57;6.80;99.90
8340;DHT22;4207;49.314;7.162;2023-02-01T11:50:33;6.80;99.90
8340;DHT22;4207;49.314;7.162;2023-02-01T11:53:22;6.80;99.90
8340;DHT22;4207;49.314;7.162;2023-02-01T11:56:09;6.90;99.90
8340;DHT22;4207;49.314;7.162;2023-02-01T12:01:50;6.80;99.90
8340;DHT22;4207;49.314;7.162;2023-02-01T12:04:52;6.80;99.90
8340;DHT22;4207;49.314;7.162;2023-02-01T12:07:29;6.80;99.90
8340;DHT22;4207;49.314;7.162;2023-02-01T12:10:09;6.80;99.90
8340;DHT22;4207;49.314;7.162;2023-02-01T12:12:48;6.70;99.90
8340;DHT22;4207;49.314;7.162;2023-02-01T12:15:33;6.70;99.90
8340;DHT22;4207;49.314;7.162;2023-02-01T12:18:26;6.70;99.90
8340;DHT22;4207;49.314;7.162;2023-02-01T12:21:08;6.80;99.90
8340;DHT22;4207;49.314;7.162;2023-02-01T12:23:54;6.80;99.90
8340;DHT22;4207;49.314;7.162;2023-02-01T12:26:41;6.90;99.90
8340;DHT22;4207;49.314;7.162;2023-02-01T12:29:26;7.00;99.90
8340;DHT22;4207;49.314;7.162;2023-02-01T12:32:07;7.00;99.90
8340;DHT22;4207;49.314;7.162;2023-02-01T12:38:02;7.10;99.90
8340;DHT22;4207;49.314;7.162;2023-02-01T12:40:43;7.10;99.90
8340;DHT22;4207;49.314;7.162;2023-02-01T12:43:18;7.00;99.90
8340;DHT22;4207;49.314;7.162;2023-02-01T12:45:55;7.00;99.90
8340;DHT22;4207;49.314;7.162;2023-02-01T12:48:29;7.00;99.90
8340;DHT22;4207;49.314;7.162;2023-02-01T12:51:03;6.90;99.90
8340;DHT22;4207;49.314;7.162;2023-02-01T12:53:44;7.00;99.90
8340;DHT22;4207;49.314;7.162;2023-02-01T12:56:21;7.10;99.90
8340;DHT22;4207;49.314;7.162;2023-02-01T12:58:52;7.10;99.90
8340;DHT22;4207;49.314;7.162;2023-02-01T13:01:25;7.10;99.90
8340;DHT22;4207;49.314;7.162;2023-02-01T13:04:01;7.20;99.90
8340;DHT22;4207;49.314;7.162;2023-02-01T13:06:37;7.20;99.90
8340;DHT22;4207;49.314;7.162;2023-02-01T13:09:12;7.30;99.90
8340;DHT22;4207;49.314;7.162;2023-02-01T13:11:44;7.20;99.90
8340;DHT22;4207;49.314;7.162;2023-02-01T13:14:23;7.20;99.90
8340;DHT22;4207;49.314;7.162;2023-02-01T13:16:57;7.20;99.90
8340;DHT22;4207;49.314;7.162;2023-02-01T13:19:30;7.20;99.90
8340;DHT22;4207;49.314;7.162;2023-02-01T13:22:05;7.30;99.90
8340;DHT22;4207;49.314;7.162;2023-02-01T13:24:38;7.30;99.90
8340;DHT22;4207;49.314;7.162;2023-02-01T13:27:11;7.30;99.90
8340;DHT22;4207;49.314;7.162;2023-02-01T13:29:47;7.30;99.90
8340;DHT22;4207;49.314;7.162;2023-02-01T13:32:30;7.30;99.90
8340;DHT22;4207;49.314;7.162;2023-02-01T13:38:52;7.40;99.90
8340;DHT22;4207;49.314;7.162;2023-02-01T13:41:28;7.40;99.90
8340;DHT22;4207;49.314;7.162;2023-02-01T13:43:59;7.30;99.90
8340;DHT22;4207;49.314;7.162;2023-02-01T13:46:29;7.50;99.90
8340;DHT22;4207;49.314;7.162;2023-02-01T13:49:00;7.40;99.90
8340;DHT22;4207;49.314;7.162;2023-02-01T13:51:34;7.50;99.90
8340;DHT22;4207;49.314;7.162;2023-02-01T13:54:05;7.40;99.90
8340;DHT22;4207;49.314;7.162;2023-02-01T13:56:41;7.30;99.90
8340;DHT22;4207;49.314;7.162;2023-02-01T13:59:36;7.10;99.90
8340;DHT22;4207;49.314;7.162;2023-02-01T14:05:08;7.00;99.90
8340;DHT22;4207;49.314;7.162;2023-02-01T14:07:40;6.90;99.90
8340;DHT22;4207;49.314;7.162;2023-02-01T14:10:48;6.80;99.90
8340;DHT22;4207;49.314;7.162;2023-02-01T14:13:27;6.60;99.90
8340;DHT22;4207;49.314;7.162;2023-02-01T14:16:14;6.50;99.90
8340;DHT22;4207;49.314;7.162;2023-02-01T14:18:57;6.40;99.90
8340;DHT22;4207;49.314;7.162;2023-02-01T14:21:28;6.40;99.90
8340;DHT22;4207;49.314;7.162;2023-02-01T14:24:00;6.20;99.90
8340;DHT22;4207;49.314;7.162;2023-02-01T14:26:43;6.30;99.90
8340;DHT22;4207;49.314;7.162;2023-02-01T14:29:24;6.30;99.90
8340;DHT22;4207;49.314;7.162;2023-02-01T14:32:00;6.50;99.90
8340;DHT22;4207;49.314;7.162;2023-02-01T14:34:36;6.70;99.90
8340;DHT22;4207;49.314;7.162;2023-02-01T14:37:13;6.70;99.90
8340;DHT22;4207;49.314;7.162;2023-02-01T14:39:55;6.80;99.90
8340;DHT22;4207;49.314;7.162;2023-02-01T14:42:28;6.80;99.90
8340;DHT22;4207;49.314;7.162;2023-02-01T14:48:46;7.00;99.90
8340;DHT22;4207;49.314;7.162;2023-02-01T14:51:16;7.00;99.90
8340;DHT22;4207;49.314;7.162;2023-02-01T14:53:45;7.00;99.90
8340;DHT22;4207;49.314;7.162;2023-02-01T14:56:16;7.00;99.90
8340;DHT22;4207;49.314;7.162;2023-02-01T14:58:53;7.00;99.90
8340;DHT22;4207;49.314;7.162;2023-02-01T15:01:24;7.00;99.90
8340;DHT22;4207;49.314;7.162;2023-02-01T15:04:03;7.10;99.90
8340;DHT22;4207;49.314;7.162;2023-02-01T15:06:36;7.00;99.90
8340;DHT22;4207;49.314;7.162;2023-02-01T15:09:09;7.00;99.90
8340;DHT22;4207;49.314;7.162;2023-02-01T15:12:00;6.90;99.90
8340;DHT22;4207;49.314;7.162;2023-02-01T15:14:32;6.80;99.90
8340;DHT22;4207;49.314;7.162;2023-02-01T15:17:01;6.80;99.90
8340;DHT22;4207;49.314;7.162;2023-02-01T15:19:30;6.70;99.90
8340;DHT22;4207;49.314;7.162;2023-02-01T15:21:58;6.70;99.90
8340;DHT22;4207;49.314;7.162;2023-02-01T15:24:28;6.80;99.90
8340;DHT22;4207;49.314;7.162;2023-02-01T15:27:03;6.80;99.90
8340;DHT22;4207;49.314;7.162;2023-02-01T15:29:33;6.80;99.90
8340;DHT22;4207;49.314;7.162;2023-02-01T15:32:01;6.80;99.90
8340;DHT22;4207;49.314;7.162;2023-02-01T15:34:47;6.80;99.90
8340;DHT22;4207;49.314;7.162;2023-02-01T15:37:16;6.80;99.90
8340;DHT22;4207;49.314;7.162;2023-02-01T15:40:14;6.70;99.90
8340;DHT22;4207;49.314;7.162;2023-02-01T15:42:51;6.70;99.90
8340;DHT22;4207;49.314;7.162;2023-02-01T15:45:22;6.70;99.90
8340;DHT22;4207;49.314;7.162;2023-02-01T15:47:54;6.80;99.90
8340;DHT22;4207;49.314;7.162;2023-02-01T15:50:22;6.70;99.90
8340;DHT22;4207;49.314;7.162;2023-02-01T15:52:53;6.70;99.90
8340;DHT22;4207;49.314;7.162;2023-02-01T15:55:29;6.60;99.90
8340;DHT22;4207;49.314;7.162;2023-02-01T15:57:59;6.50;99.90
8340;DHT22;4207;49.314;7.162;2023-02-01T16:00:31;6.50;99.90
8340;DHT22;4207;49.314;7.162;2023-02-01T16:03:04;6.50;99.90
8340;DHT22;4207;49.314;7.162;2023-02-01T16:05:34;6.40;99.90
8340;DHT22;4207;49.314;7.162;2023-02-01T16:08:13;6.40;99.90
8340;DHT22;4207;49.314;7.162;2023-02-01T16:10:44;6.50;99.90
8340;DHT22;4207;49.314;7.162;2023-02-01T16:13:13;6.40;99.90
8340;DHT22;4207;49.314;7.162;2023-02-01T16:15:43;6.30;99.90
8340;DHT22;4207;49.314;7.162;2023-02-01T16:18:12;6.30;99.90
8340;DHT22;4207;49.314;7.162;2023-02-01T16:20:44;6.30;99.90
8340;DHT22;4207;49.314;7.162;2023-02-01T16:23:12;6.30;99.90
8340;DHT22;4207;49.314;7.162;2023-02-01T16:25:41;6.30;99.90
8340;DHT22;4207;49.314;7.162;2023-02-01T16:28:09;6.30;99.90
8340;DHT22;4207;49.314;7.162;2023-02-01T16:30:37;6.30;99.90
8340;DHT22;4207;49.314;7.162;2023-02-01T16:33:11;6.20;99.90
8340;DHT22;4207;49.314;7.162;2023-02-01T16:35:42;6.20;99.90
8340;DHT22;4207;49.314;7.162;2023-02-01T16:38:13;6.10;99.90
8340;DHT22;4207;49.314;7.162;2023-02-01T16:40:42;6.10;99.90
8340;DHT22;4207;49.314;7.162;2023-02-01T16:43:13;6.10;99.90
8340;DHT22;4207;49.314;7.162;2023-02-01T16:45:41;6.00;99.90
8340;DHT22;4207;49.314;7.162;2023-02-01T16:48:17;6.00;99.90
8340;DHT22;4207;49.314;7.162;2023-02-01T16:50:49;6.10;99.90
8340;DHT22;4207;49.314;7.162;2023-02-01T16:53:18;6.10;99.90
8340;DHT22;4207;49.314;7.162;2023-02-01T16:55:46;5.90;99.90
8340;DHT22;4207;49.314;7.162;2023-02-01T16:58:16;5.80;99.90
8340;DHT22;4207;49.314;7.162;2023-02-01T17:00:45;5.90;99.90
8340;DHT22;4207;49.314;7.162;2023-02-01T17:03:15;5.90;99.90
8340;DHT22;4207;49.314;7.162;2023-02-01T17:05:45;5.80;99.90
8340;DHT22;4207;49.314;7.162;2023-02-01T17:08:17;5.80;99.90
8340;DHT22;4207;49.314;7.162;2023-02-01T17:10:46;5.80;99.90
8340;DHT22;4207;49.314;7.162;2023-02-01T17:13:15;5.80;99.90
8340;DHT22;4207;49.314;7.162;2023-02-01T17:15:49;5.90;99.90